• Join FlightAware (Why Join?)
  • Login
  • US Flag 
08:09AM EDT


 

Airport Tracker/Info


-or-


 

Live Flight TrackerFlight Track Log ✈ N214MS ✈ 02-May-2013 ✈ KIWS - KSDL

Flight Track Log - Related Links

Times and Time Zones

All times are in EDT time to prevent confusion due to time zone crossing. See the N214MS flight status page for this flight to view local times or setup timezone preferences in your user account.

Time Position Orientation Groundspeed Altitude Reporting Facility
EDT Latitude Longitude Course Direction KTS MPH feet Rate Location/Type
05:23PM 29.8264 -95.6803 275° West 104 120 800  Level Houston Center
05:23PM 29.8292 -95.7136 275° West 175 201 2,600 2,460 Climbing Houston Center
05:24PM 29.8350 -95.7339 288° West 162 186 3,700 3,180 Climbing Houston Center
05:25PM 29.8453 -95.7767 285° West 191 220 6,100 3,060 Climbing Houston Center
05:25PM 29.8481 -95.7894 284° West 171 197 6,900 2,400 Climbing Houston Center
05:26PM 29.8592 -95.8414 284° West 170 196 9,500 2,460 Climbing Houston Center
05:27PM 29.8708 -95.8944 284° West 170 196 12,000 2,460 Climbing Houston Center
05:28PM 29.8842 -95.9606 283° West 177 204 14,600 2,220 Climbing Houston Center
05:29PM 29.8961 -96.0164 284° West 178 205 16,700 1,740 Climbing Houston Center
05:30PM 29.9086 -96.0756 284° West 191 220 18,300 1,440 Climbing Houston Center
05:31PM 29.9228 -96.1367 285° West 196 226 19,700 1,200 Climbing Houston Center
05:32PM 29.9361 -96.2011 283° West 205 236 20,900 1,320 Climbing Houston Center
05:33PM 29.9411 -96.2833 274° West 213 245 22,500 1,320 Climbing Houston Center
05:34PM 29.9514 -96.3528 280° West 220 253 23,700 1,200 Climbing Houston Center
05:35PM 29.9675 -96.4225 285° West 224 258 25,100 1,260 Climbing Houston Center
05:36PM 29.9811 -96.4939 282° West 227 261 26,400 1,200 Climbing Houston Center
05:37PM 29.9972 -96.5689 284° West 238 274 27,600 1,140 Climbing Houston Center
05:38PM 30.0111 -96.6436 282° West 239 275 28,800 1,200 Climbing Houston Center
05:39PM 30.0300 -96.7369 283° West 247 284 30,100 1,140 Climbing Houston Center
05:40PM 30.0458 -96.8172 283° West 256 295 31,200 1,080 Climbing Houston Center
05:41PM 30.0603 -96.8928 282° West 245 282 32,400 1,140 Climbing Houston Center
05:43PM 30.0758 -96.9711 283° West 250 288 33,600 1,080 Climbing Houston Center
05:44PM 30.0903 -97.0456 283° West 243 280 34,700 1,200 Climbing Houston Center
05:45PM 30.1064 -97.1333 282° West 232 267 36,100 1,020 Climbing Houston Center
05:46PM 30.1208 -97.2053 283° West 229 264 36,900 840 Climbing Houston Center
05:47PM 30.1350 -97.2806 282° West 234 269 37,900 480 Climbing Houston Center
05:48PM 30.1506 -97.3567 283° West 242 278 38,000  Climbing Houston Center
05:49PM 30.1664 -97.4428 282° West 269 310 38,000  Level Houston Center
05:50PM 30.1842 -97.5350 283° West 286 329 38,000  Level Houston Center
05:51PM 30.2025 -97.6311 282° West 300 345 38,000  Level Houston Center
05:52PM 30.2206 -97.7294 282° West 308 354 38,000  Level Houston Center
05:53PM 30.2403 -97.8278 283° West 310 357 38,000  Level Houston Center
05:54PM 30.2636 -97.9386 284° West 309 356 38,000  Level Houston Center
05:55PM 30.2869 -98.0431 285° West 312 359 38,000  Level Houston Center
05:56PM 30.3086 -98.1408 284° West 313 360 38,000  Level Houston Center
05:57PM 30.3306 -98.2394 284° West 315 362 38,000  Level Houston Center
05:58PM 30.3525 -98.3392 284° West 316 364 38,000  Level Houston Center
05:59PM 30.3731 -98.4378 284° West 313 360 38,000  Level Houston Center
06:00PM 30.3944 -98.5364 284° West 310 357 38,000  Level Houston Center
06:01PM 30.4161 -98.6353 284° West 314 361 38,000  Level Houston Center
06:02PM 30.4372 -98.7342 284° West 312 359 38,000  Level Houston Center
06:03PM 30.4578 -98.8319 284° West 310 357 38,000  Level Houston Center
06:04PM 30.4836 -98.9469 285° West 311 358 38,000  Level Houston Center
06:05PM 30.5044 -99.0450 284° West 309 356 38,000  Level Houston Center
06:06PM 30.5244 -99.1344 285° West 310 357 38,000  Level Houston Center
06:07PM 30.5450 -99.2319 284° West 312 359 38,000  Level Houston Center
06:08PM 30.5653 -99.3294 284° West 311 358 38,000  Level Houston Center
06:09PM 30.5894 -99.4436 284° West 306 352 38,000  Level Houston Center
06:10PM 30.6086 -99.5386 283° West 304 350 38,000  Level Houston Center
06:11PM 30.6275 -99.6314 283° West 297 342 38,000  Level Houston Center
06:12PM 30.6472 -99.7236 284° West 296 341 38,000  Level Houston Center
06:13PM 30.6658 -99.8136 284° West 291 335 38,000  Level Houston Center
06:14PM 30.6844 -99.9050 283° West 291 335 38,000  Level Houston Center
06:15PM 30.7072 -100.0136 284° West 291 335 38,000  Level Houston Center
06:17PM 30.7242 -100.1053 282° West 292 336 38,000  Level Houston Center
06:18PM 30.7444 -100.1958 285° West 292 336 38,000  Level Houston Center
06:19PM 30.7614 -100.2853 282° West 289 333 38,000  Level Houston Center
06:20PM 30.7792 -100.3753 283° West 289 333 38,000  Level Houston Center
06:21PM 30.7975 -100.4653 283° West 290 334 38,000  Level Houston Center
06:22PM 30.8183 -100.5739 283° West 291 335 38,000  Level Houston Center
06:23PM 30.8361 -100.6631 283° West 290 334 38,000  Level Houston Center
06:24PM 30.8547 -100.7514 284° West 289 333 38,000  Level Houston Center
06:25PM 30.8719 -100.8411 283° West 289 333 38,000  Level Houston Center
06:26PM 30.8894 -100.9283 283° West 281 323 38,000  Level Houston Center
06:27PM 30.9069 -101.0169 283° West 282 325 38,000  Level Houston Center
06:28PM 30.9269 -101.1242 282° West 284 327 38,000  Level Houston Center
06:29PM 30.9456 -101.2094 284° West 277 319 38,000  Level Houston Center
06:30PM 30.9628 -101.2975 283° West 279 321 38,000  Level Houston Center
06:31PM 30.9800 -101.3900 282° West 281 323 38,000  Level Houston Center
06:31PM 30.9817 -101.4061 277° West 278 320 38,000  Level Albuquerque Center
06:32PM 31.0019 -101.5122 283° West 278 320 38,000  Level Albuquerque Center
06:33PM 31.0183 -101.5997 282° West 276 318 38,000  Level Albuquerque Center
06:34PM 31.0350 -101.6861 283° West 276 318 38,000  Level Albuquerque Center
06:35PM 31.0519 -101.7731 283° West 275 316 38,000  Level Albuquerque Center
06:36PM 31.0669 -101.8597 281° West 273 314 38,000  Level Albuquerque Center
06:37PM 31.0842 -101.9572 282° West 285 328 38,000  Level Albuquerque Center
06:38PM 31.1011 -102.0456 283° West 283 326 38,000  Level Albuquerque Center
06:40PM 31.1178 -102.1325 283° West 277 319 38,000  Level Albuquerque Center
06:41PM 31.1344 -102.2214 282° West 279 321 38,000  Level Albuquerque Center
06:42PM 31.1511 -102.3103 282° West 280 322 38,000  Level Albuquerque Center
06:43PM 31.1703 -102.4153 282° West 277 319 38,000  Level Albuquerque Center
06:44PM 31.1867 -102.5056 282° West 281 323 38,000  Level Albuquerque Center
06:45PM 31.2011 -102.5919 281° West 278 320 38,000  Level Albuquerque Center
06:46PM 31.2178 -102.6811 282° West 279 321 38,000  Level Albuquerque Center
06:47PM 31.2336 -102.7697 282° West 279 321 38,000  Level Albuquerque Center
06:48PM 31.2492 -102.8581 282° West 278 320 38,000  Level Albuquerque Center
06:49PM 31.2683 -102.9633 282° West 277 319 38,000  Level Albuquerque Center
06:50PM 31.2842 -103.0514 282° West 276 318 38,000  Level Albuquerque Center
06:51PM 31.3033 -103.1375 285° West 276 318 38,000  Level Albuquerque Center
06:52PM 31.3228 -103.2228 285° West 273 314 38,000  Level Albuquerque Center
06:53PM 31.3425 -103.3097 285° West 275 316 38,000  Level Albuquerque Center
06:54PM 31.3603 -103.3958 284° West 273 314 38,000  Level Albuquerque Center
06:55PM 31.3792 -103.4819 284° West 273 314 38,000  Level Albuquerque Center
06:56PM 31.3986 -103.5681 285° West 273 314 38,000  Level Albuquerque Center
06:57PM 31.4208 -103.6711 284° West 272 313 38,000  Level Albuquerque Center
06:58PM 31.4394 -103.7575 284° West 274 315 38,000  Level Albuquerque Center
06:59PM 31.4553 -103.8322 284° West 276 318 38,000  Level Albuquerque Center
07:00PM 31.4769 -103.9364 284° West 275 316 38,000  Level Albuquerque Center
07:01PM 31.4958 -104.0231 284° West 276 318 38,000  Level Albuquerque Center
07:02PM 31.5147 -104.1111 284° West 278 320 38,000  Level Albuquerque Center
07:03PM 31.5339 -104.1989 284° West 279 321 38,000  Level Albuquerque Center
07:04PM 31.5522 -104.2872 284° West 279 321 38,000  Level Albuquerque Center
07:05PM 31.5706 -104.3747 284° West 278 320 38,000  Level Albuquerque Center
07:06PM 31.5894 -104.4625 284° West 278 320 38,000  Level Albuquerque Center
07:07PM 31.6114 -104.5692 284° West 281 323 38,000  Level Albuquerque Center
07:08PM 31.6303 -104.6569 284° West 279 321 38,000  Level Albuquerque Center
07:09PM 31.6481 -104.7464 283° West 282 325 38,000  Level Albuquerque Center
07:10PM 31.6672 -104.8350 284° West 282 325 38,000  Level Albuquerque Center
07:11PM 31.6853 -104.9242 283° West 282 325 38,000  Level Albuquerque Center
07:12PM 31.7036 -105.0128 284° West 282 325 38,000  Level Albuquerque Center
07:13PM 31.7211 -105.1025 283° West 282 325 38,000  Level Albuquerque Center
07:14PM 31.7436 -105.2117 284° West 287 330 38,000  Level Albuquerque Center
07:15PM 31.7625 -105.3031 284° West 288 331 38,000  Level Albuquerque Center
07:16PM 31.7808 -105.3958 283° West 290 334 38,000  Level Albuquerque Center
07:18PM 31.7986 -105.4861 283° West 288 331 38,000  Level Albuquerque Center
07:19PM 31.8167 -105.5772 283° West 286 329 38,000  Level Albuquerque Center
07:20PM 31.8350 -105.6708 283° West 293 337 38,000  Level Albuquerque Center
07:21PM 31.8531 -105.7642 283° West 294 338 38,000  Level Albuquerque Center
07:22PM 31.8753 -105.8758 283° West 292 336 38,000  Level Albuquerque Center
07:23PM 31.8936 -105.9692 283° West 294 338 38,000  Level Albuquerque Center
07:24PM 31.9108 -106.0556 283° West 292 336 38,000  Level Albuquerque Center
07:25PM 31.9289 -106.1494 283° West 294 338 38,000  Level Albuquerque Center
07:26PM 31.9475 -106.2433 283° West 295 339 38,000  Level Albuquerque Center
07:27PM 31.9708 -106.3369 286° West 298 343 38,000  Level Albuquerque Center
07:28PM 32.0025 -106.4469 289° West 296 341 38,000  Level Albuquerque Center
07:29PM 32.0283 -106.5392 288° West 297 342 38,000  Level Albuquerque Center
07:30PM 32.0550 -106.6314 289° West 298 343 38,000  Level Albuquerque Center
07:31PM 32.0806 -106.7233 288° West 296 341 38,000  Level Albuquerque Center
07:32PM 32.1067 -106.8156 289° West 297 342 38,000  Level Albuquerque Center
07:33PM 32.1328 -106.9089 288° West 299 344 38,000  Level Albuquerque Center
07:34PM 32.1583 -107.0017 288° West 297 342 38,000  Level Albuquerque Center
07:35PM 32.1869 -107.1061 288° West 295 339 38,000  Level Albuquerque Center
07:36PM 32.2103 -107.1886 289° West 300 345 38,000  Level Albuquerque Center
07:37PM 32.2389 -107.3053 286° West 309 356 38,000  Level Albuquerque Center
07:38PM 32.2642 -107.3986 288° West 304 350 38,000  Level Albuquerque Center
07:39PM 32.2903 -107.4922 288° West 303 349 38,000  Level Albuquerque Center
07:40PM 32.3172 -107.5903 288° West 300 345 38,000  Level Albuquerque Center
07:41PM 32.3431 -107.6850 288° West 302 348 38,000  Level Albuquerque Center
07:42PM 32.3686 -107.7794 288° West 301 346 38,000  Level Albuquerque Center
07:43PM 32.3950 -107.8742 288° West 302 348 38,000  Level Albuquerque Center
07:44PM 32.4197 -107.9697 287° West 303 349 38,000  Level Albuquerque Center
07:45PM 32.4472 -108.0742 287° West 304 350 38,000  Level Albuquerque Center
07:46PM 32.4739 -108.1706 288° West 308 354 38,000  Level Albuquerque Center
07:47PM 32.4981 -108.2667 287° West 308 354 38,000  Level Albuquerque Center
07:48PM 32.5239 -108.3622 288° West 307 353 38,000  Level Albuquerque Center
07:49PM 32.5494 -108.4569 288° West 305 351 38,000 -360 Level Albuquerque Center
07:50PM 32.5789 -108.5706 287° West 303 349 37,300 -660 Descending Albuquerque Center
07:51PM 32.6044 -108.6650 288° West 304 350 36,700 -540 Descending Albuquerque Center
07:52PM 32.6292 -108.7614 287° West 306 352 36,200 -960 Descending Albuquerque Center
07:53PM 32.6544 -108.8594 287° West 309 356 34,800 -1,620 Descending Albuquerque Center
07:54PM 32.6794 -108.9594 287° West 316 364 33,000 -1,800 Descending Albuquerque Center
07:55PM 32.7075 -109.0544 289° West 321 369 31,200 -1,860 Descending Albuquerque Center
07:56PM 32.7314 -109.1578 285° West 312 359 29,300 -1,740 Descending Albuquerque Center
07:57PM 32.7556 -109.2547 287° West 306 352 27,700 -1,200 Descending Albuquerque Center
07:58PM 32.7844 -109.3736 286° West 311 358 26,900 -840 Descending Albuquerque Center
07:59PM 32.8092 -109.4761 286° West 320 368 26,100 -840 Descending Albuquerque Center
08:01PM 32.8336 -109.5797 286° West 326 375 25,300 -840 Descending Albuquerque Center
08:02PM 32.8581 -109.6833 286° West 327 376 24,500 -840 Descending Albuquerque Center
08:03PM 32.8819 -109.7867 285° West 326 375 23,700 -660 Descending Albuquerque Center
08:04PM 32.9058 -109.8878 286° West 322 371 23,200 -540 Descending Albuquerque Center
08:05PM 32.9300 -109.9883 286° West 319 367 22,600 -600 Descending Albuquerque Center
08:06PM 32.9622 -110.1106 287° West 324 373 22,000 -300 Descending Albuquerque Center
08:07PM 32.9839 -110.2097 285° West 315 362 22,000  Level Albuquerque Center
08:08PM 33.0067 -110.3069 286° West 309 356 22,000  Level Albuquerque Center
08:09PM 33.0281 -110.4033 285° West 306 352 22,000  Level Albuquerque Center
08:10PM 33.0489 -110.5003 284° West 304 350 22,000 -360 Level Albuquerque Center
08:11PM 33.0714 -110.5942 286° West 300 345 21,300 -720 Descending Albuquerque Center
08:12PM 33.0942 -110.6994 285° West 287 330 20,600 -660 Descending Albuquerque Center
08:13PM 33.1144 -110.7906 285° West 285 328 20,000 -1,080 Descending Albuquerque Center
08:14PM 33.1364 -110.8825 286° West 288 331 18,500 -1,680 Descending Albuquerque Center
08:15PM 33.1564 -110.9731 285° West 286 329 16,600 -1,860 Descending Albuquerque Center
08:16PM 33.1908 -111.0550 297° West 280 322 14,700 -2,340 Descending Albuquerque Center
08:17PM 33.2356 -111.1397 302° West 300 345 11,900 -1,800 Descending Albuquerque Center
08:18PM 33.2800 -111.2264 302° West 303 349 11,100 -780 Descending Albuquerque Center
08:19PM 33.3250 -111.3161 301° West 264 304 10,300 -840 Descending Albuquerque Center
08:20PM 33.3644 -111.3936 301° West 273 314 9,400 -1,020 Descending Albuquerque Center
08:21PM 33.4061 -111.4750 302° West 284 327 8,300 -1,140 Descending Albuquerque Center
08:22PM 33.4456 -111.5561 300° West 282 325 7,100 -1,200 Descending Albuquerque Center
08:23PM 33.4828 -111.6278 302° West 256 295 5,900 -1,020 Descending Albuquerque Center
08:24PM 33.5183 -111.7006 300° West 252 290 5,000 -480 Descending Albuquerque Center
08:25PM 33.5517 -111.7686 300° West 238 274 5,000 -420 Level Albuquerque Center
08:26PM 33.5858 -111.8383 300° West 199 229 4,200 -1,020 Descending Albuquerque Center
08:27PM 33.5739 -111.9031 258° West 192 221 2,900 -1,020 Descending Albuquerque Center
08:28PM 33.5811 -111.9419 283° West 141 162 2,200 -540 Descending Albuquerque Center
08:29PM 33.6039 -111.9333 17° North 109 125 1,800 -360 Descending Albuquerque Center
08:30PM 33.6253 -111.9103 42° Northeast 101 116 1,500 -300 Descending Albuquerque Center